sensor_id;sensor_type;location;lat;lon;timestamp;P1;durP1;ratioP1;P2;durP2;ratioP2
52798;SDS011;38667;42.872;74.622;2024-03-17T00:02:04;32.37;;;14.23;;
52798;SDS011;38667;42.872;74.622;2024-03-17T00:04:32;38.70;;;12.73;;
52798;SDS011;38667;42.872;74.622;2024-03-17T00:06:58;41.33;;;13.37;;
52798;SDS011;38667;42.872;74.622;2024-03-17T00:09:24;73.07;;;23.53;;
52798;SDS011;38667;42.872;74.622;2024-03-17T00:11:51;32.80;;;13.23;;
52798;SDS011;38667;42.872;74.622;2024-03-17T00:14:17;26.57;;;12.47;;
52798;SDS011;38667;42.872;74.622;2024-03-17T00:16:43;38.80;;;12.53;;
52798;SDS011;38667;42.872;74.622;2024-03-17T00:19:10;36.97;;;13.10;;
52798;SDS011;38667;42.872;74.622;2024-03-17T00:21:38;35.30;;;14.93;;
52798;SDS011;38667;42.872;74.622;2024-03-17T00:24:04;55.50;;;15.27;;
52798;SDS011;38667;42.872;74.622;2024-03-17T00:26:31;39.73;;;11.73;;
52798;SDS011;38667;42.872;74.622;2024-03-17T00:28:57;29.20;;;11.70;;
52798;SDS011;38667;42.872;74.622;2024-03-17T00:31:23;25.27;;;11.40;;
52798;SDS011;38667;42.872;74.622;2024-03-17T00:33:51;24.73;;;10.77;;
52798;SDS011;38667;42.872;74.622;2024-03-17T00:36:18;43.87;;;11.90;;
52798;SDS011;38667;42.872;74.622;2024-03-17T00:38:45;39.07;;;11.53;;
52798;SDS011;38667;42.872;74.622;2024-03-17T00:41:12;23.67;;;10.23;;
52798;SDS011;38667;42.872;74.622;2024-03-17T00:43:38;52.13;;;11.60;;
52798;SDS011;38667;42.872;74.622;2024-03-17T00:46:04;37.10;;;12.00;;
52798;SDS011;38667;42.872;74.622;2024-03-17T00:48:31;24.33;;;11.20;;
52798;SDS011;38667;42.872;74.622;2024-03-17T00:50:57;23.70;;;9.93;;
52798;SDS011;38667;42.872;74.622;2024-03-17T00:53:24;28.83;;;10.37;;
52798;SDS011;38667;42.872;74.622;2024-03-17T00:55:55;25.77;;;10.70;;
52798;SDS011;38667;42.872;74.622;2024-03-17T00:58:21;29.60;;;11.67;;
52798;SDS011;38667;42.872;74.622;2024-03-17T01:00:47;50.03;;;12.77;;
52798;SDS011;38667;42.872;74.622;2024-03-17T01:03:14;30.30;;;12.03;;
52798;SDS011;38667;42.872;74.622;2024-03-17T01:05:41;37.47;;;13.27;;
52798;SDS011;38667;42.872;74.622;2024-03-17T01:08:07;30.30;;;11.47;;
52798;SDS011;38667;42.872;74.622;2024-03-17T01:10:36;32.40;;;11.87;;
52798;SDS011;38667;42.872;74.622;2024-03-17T01:13:05;32.90;;;11.87;;
52798;SDS011;38667;42.872;74.622;2024-03-17T01:15:32;27.93;;;10.63;;
52798;SDS011;38667;42.872;74.622;2024-03-17T01:17:58;32.23;;;12.70;;
52798;SDS011;38667;42.872;74.622;2024-03-17T01:20:25;30.87;;;12.80;;
52798;SDS011;38667;42.872;74.622;2024-03-17T01:22:51;24.97;;;11.00;;
52798;SDS011;38667;42.872;74.622;2024-03-17T01:25:17;33.93;;;11.27;;
52798;SDS011;38667;42.872;74.622;2024-03-17T01:27:44;32.93;;;12.00;;
52798;SDS011;38667;42.872;74.622;2024-03-17T01:30:12;36.67;;;12.43;;
52798;SDS011;38667;42.872;74.622;2024-03-17T01:32:38;29.73;;;12.70;;
52798;SDS011;38667;42.872;74.622;2024-03-17T01:35:05;24.00;;;9.13;;
52798;SDS011;38667;42.872;74.622;2024-03-17T01:37:31;24.83;;;8.90;;
52798;SDS011;38667;42.872;74.622;2024-03-17T01:39:58;24.87;;;9.33;;
52798;SDS011;38667;42.872;74.622;2024-03-17T01:42:24;35.40;;;13.17;;
52798;SDS011;38667;42.872;74.622;2024-03-17T01:44:51;37.70;;;11.53;;
52798;SDS011;38667;42.872;74.622;2024-03-17T01:47:19;26.77;;;11.47;;
52798;SDS011;38667;42.872;74.622;2024-03-17T01:49:45;21.60;;;9.37;;
52798;SDS011;38667;42.872;74.622;2024-03-17T01:52:12;44.10;;;13.80;;
52798;SDS011;38667;42.872;74.622;2024-03-17T01:54:39;33.60;;;11.20;;
52798;SDS011;38667;42.872;74.622;2024-03-17T01:57:06;33.50;;;11.70;;
52798;SDS011;38667;42.872;74.622;2024-03-17T01:59:32;42.73;;;10.70;;
52798;SDS011;38667;42.872;74.622;2024-03-17T02:01:59;31.40;;;10.73;;
52798;SDS011;38667;42.872;74.622;2024-03-17T02:04:27;25.47;;;12.10;;
52798;SDS011;38667;42.872;74.622;2024-03-17T02:06:54;32.90;;;10.73;;
52798;SDS011;38667;42.872;74.622;2024-03-17T02:09:21;43.13;;;10.90;;
52798;SDS011;38667;42.872;74.622;2024-03-17T02:11:47;30.87;;;10.17;;
52798;SDS011;38667;42.872;74.622;2024-03-17T02:14:13;33.27;;;10.30;;
52798;SDS011;38667;42.872;74.622;2024-03-17T02:16:40;34.23;;;10.57;;
52798;SDS011;38667;42.872;74.622;2024-03-17T02:19:07;33.33;;;10.47;;
52798;SDS011;38667;42.872;74.622;2024-03-17T02:21:34;36.87;;;11.33;;
52798;SDS011;38667;42.872;74.622;2024-03-17T02:24:02;35.13;;;11.50;;
52798;SDS011;38667;42.872;74.622;2024-03-17T02:26:29;31.17;;;10.70;;
52798;SDS011;38667;42.872;74.622;2024-03-17T02:28:55;34.23;;;11.47;;
52798;SDS011;38667;42.872;74.622;2024-03-17T02:31:22;40.10;;;11.83;;
52798;SDS011;38667;42.872;74.622;2024-03-17T02:33:48;45.73;;;14.83;;
52798;SDS011;38667;42.872;74.622;2024-03-17T02:36:14;56.73;;;15.77;;
52798;SDS011;38667;42.872;74.622;2024-03-17T02:38:41;45.77;;;14.20;;
52798;SDS011;38667;42.872;74.622;2024-03-17T02:41:09;50.37;;;13.20;;
52798;SDS011;38667;42.872;74.622;2024-03-17T02:43:35;57.17;;;13.87;;
52798;SDS011;38667;42.872;74.622;2024-03-17T02:46:01;40.97;;;12.83;;
52798;SDS011;38667;42.872;74.622;2024-03-17T02:48:28;32.20;;;12.60;;
52798;SDS011;38667;42.872;74.622;2024-03-17T02:50:54;37.83;;;12.83;;
52798;SDS011;38667;42.872;74.622;2024-03-17T02:53:21;34.00;;;13.50;;
52798;SDS011;38667;42.872;74.622;2024-03-17T02:55:48;41.53;;;12.87;;
52798;SDS011;38667;42.872;74.622;2024-03-17T02:58:16;47.93;;;14.83;;
52798;SDS011;38667;42.872;74.622;2024-03-17T03:00:42;42.10;;;13.30;;
52798;SDS011;38667;42.872;74.622;2024-03-17T03:03:09;41.63;;;16.97;;
52798;SDS011;38667;42.872;74.622;2024-03-17T03:05:35;31.73;;;13.53;;
52798;SDS011;38667;42.872;74.622;2024-03-17T03:08:01;34.87;;;13.70;;
52798;SDS011;38667;42.872;74.622;2024-03-17T03:10:28;39.87;;;13.93;;
52798;SDS011;38667;42.872;74.622;2024-03-17T03:12:54;34.27;;;13.37;;
52798;SDS011;38667;42.872;74.622;2024-03-17T03:15:22;42.50;;;13.27;;
52798;SDS011;38667;42.872;74.622;2024-03-17T03:17:48;32.53;;;13.70;;
52798;SDS011;38667;42.872;74.622;2024-03-17T03:20:15;36.70;;;13.77;;
52798;SDS011;38667;42.872;74.622;2024-03-17T03:22:41;42.33;;;16.93;;
52798;SDS011;38667;42.872;74.622;2024-03-17T03:25:08;49.97;;;15.97;;
52798;SDS011;38667;42.872;74.622;2024-03-17T03:27:34;44.60;;;15.73;;
52798;SDS011;38667;42.872;74.622;2024-03-17T03:30:00;39.77;;;16.70;;
52798;SDS011;38667;42.872;74.622;2024-03-17T03:32:28;70.87;;;16.70;;
52798;SDS011;38667;42.872;74.622;2024-03-17T03:34:54;35.53;;;16.30;;
52798;SDS011;38667;42.872;74.622;2024-03-17T03:37:21;46.03;;;16.53;;
52798;SDS011;38667;42.872;74.622;2024-03-17T03:39:47;50.57;;;17.73;;
52798;SDS011;38667;42.872;74.622;2024-03-17T03:42:13;45.63;;;18.20;;
52798;SDS011;38667;42.872;74.622;2024-03-17T03:44:40;52.80;;;20.33;;
52798;SDS011;38667;42.872;74.622;2024-03-17T03:47:06;55.10;;;20.70;;
52798;SDS011;38667;42.872;74.622;2024-03-17T03:49:34;45.23;;;21.67;;
52798;SDS011;38667;42.872;74.622;2024-03-17T03:52:00;54.13;;;23.33;;
52798;SDS011;38667;42.872;74.622;2024-03-17T03:54:27;58.20;;;24.00;;
52798;SDS011;38667;42.872;74.622;2024-03-17T03:56:53;57.73;;;24.57;;
52798;SDS011;38667;42.872;74.622;2024-03-17T03:59:19;74.80;;;25.40;;
52798;SDS011;38667;42.872;74.622;2024-03-17T04:01:46;72.40;;;26.97;;
52798;SDS011;38667;42.872;74.622;2024-03-17T04:04:13;71.80;;;28.37;;
52798;SDS011;38667;42.872;74.622;2024-03-17T04:06:41;54.17;;;27.95;;
52798;SDS011;38667;42.872;74.622;2024-03-17T04:09:07;81.57;;;32.37;;
52798;SDS011;38667;42.872;74.622;2024-03-17T04:11:33;75.07;;;32.33;;
52798;SDS011;38667;42.872;74.622;2024-03-17T04:14:00;67.83;;;32.43;;
52798;SDS011;38667;42.872;74.622;2024-03-17T04:16:26;99.23;;;35.20;;
52798;SDS011;38667;42.872;74.622;2024-03-17T04:18:53;80.35;;;33.88;;
52798;SDS011;38667;42.872;74.622;2024-03-17T04:21:19;78.90;;;34.50;;
52798;SDS011;38667;42.872;74.622;2024-03-17T04:23:47;89.28;;;38.75;;
52798;SDS011;38667;42.872;74.622;2024-03-17T04:26:13;87.70;;;41.88;;
52798;SDS011;38667;42.872;74.622;2024-03-17T04:28:40;89.78;;;42.40;;
52798;SDS011;38667;42.872;74.622;2024-03-17T04:31:06;105.20;;;42.83;;
52798;SDS011;38667;42.872;74.622;2024-03-17T04:33:33;94.30;;;40.50;;
52798;SDS011;38667;42.872;74.622;2024-03-17T04:35:59;79.80;;;37.70;;
52798;SDS011;38667;42.872;74.622;2024-03-17T04:38:26;89.85;;;35.85;;
52798;SDS011;38667;42.872;74.622;2024-03-17T04:40:54;78.47;;;36.08;;
52798;SDS011;38667;42.872;74.622;2024-03-17T04:43:20;91.47;;;36.78;;
52798;SDS011;38667;42.872;74.622;2024-03-17T04:45:47;76.85;;;40.38;;
52798;SDS011;38667;42.872;74.622;2024-03-17T04:48:13;84.00;;;41.95;;
52798;SDS011;38667;42.872;74.622;2024-03-17T04:50:39;93.00;;;43.38;;
52798;SDS011;38667;42.872;74.622;2024-03-17T04:53:06;108.03;;;47.78;;
52798;SDS011;38667;42.872;74.622;2024-03-17T04:55:32;96.78;;;48.38;;
52798;SDS011;38667;42.872;74.622;2024-03-17T04:58:00;114.82;;;51.13;;
52798;SDS011;38667;42.872;74.622;2024-03-17T05:00:26;112.60;;;50.17;;
52798;SDS011;38667;42.872;74.622;2024-03-17T05:02:53;103.57;;;48.50;;
52798;SDS011;38667;42.872;74.622;2024-03-17T05:05:19;110.32;;;49.58;;
52798;SDS011;38667;42.872;74.622;2024-03-17T05:07:45;92.05;;;44.85;;
52798;SDS011;38667;42.872;74.622;2024-03-17T05:10:12;108.00;;;46.60;;
52798;SDS011;38667;42.872;74.622;2024-03-17T05:12:38;84.75;;;43.88;;
52798;SDS011;38667;42.872;74.622;2024-03-17T05:15:07;81.88;;;42.22;;
52798;SDS011;38667;42.872;74.622;2024-03-17T05:17:34;79.95;;;39.63;;
52798;SDS011;38667;42.872;74.622;2024-03-17T05:20:00;76.07;;;40.83;;
52798;SDS011;38667;42.872;74.622;2024-03-17T05:22:26;83.22;;;40.13;;
52798;SDS011;38667;42.872;74.622;2024-03-17T05:24:53;85.25;;;40.00;;
52798;SDS011;38667;42.872;74.622;2024-03-17T05:27:19;83.45;;;41.03;;
52798;SDS011;38667;42.872;74.622;2024-03-17T05:29:45;85.43;;;41.97;;
52798;SDS011;38667;42.872;74.622;2024-03-17T05:32:13;89.38;;;41.17;;
52798;SDS011;38667;42.872;74.622;2024-03-17T05:34:40;84.55;;;41.05;;
52798;SDS011;38667;42.872;74.622;2024-03-17T05:37:06;85.93;;;40.63;;
52798;SDS011;38667;42.872;74.622;2024-03-17T05:39:33;79.07;;;40.25;;
52798;SDS011;38667;42.872;74.622;2024-03-17T05:41:59;76.35;;;40.83;;
52798;SDS011;38667;42.872;74.622;2024-03-17T05:44:25;84.75;;;38.70;;
52798;SDS011;38667;42.872;74.622;2024-03-17T05:46:52;75.65;;;36.30;;
52798;SDS011;38667;42.872;74.622;2024-03-17T05:49:20;69.47;;;36.60;;
52798;SDS011;38667;42.872;74.622;2024-03-17T05:51:46;73.78;;;34.58;;
52798;SDS011;38667;42.872;74.622;2024-03-17T05:54:12;74.63;;;36.30;;
52798;SDS011;38667;42.872;74.622;2024-03-17T05:56:39;77.45;;;35.45;;
52798;SDS011;38667;42.872;74.622;2024-03-17T05:59:05;72.75;;;35.05;;
52798;SDS011;38667;42.872;74.622;2024-03-17T06:01:31;67.65;;;31.65;;
52798;SDS011;38667;42.872;74.622;2024-03-17T06:03:58;68.80;;;32.55;;
52798;SDS011;38667;42.872;74.622;2024-03-17T06:06:26;67.78;;;32.85;;
52798;SDS011;38667;42.872;74.622;2024-03-17T06:08:52;65.10;;;30.30;;
52798;SDS011;38667;42.872;74.622;2024-03-17T06:11:18;59.60;;;32.28;;
52798;SDS011;38667;42.872;74.622;2024-03-17T06:13:45;55.55;;;31.52;;
52798;SDS011;38667;42.872;74.622;2024-03-17T06:16:11;62.97;;;33.00;;
52798;SDS011;38667;42.872;74.622;2024-03-17T06:18:37;68.07;;;34.45;;
52798;SDS011;38667;42.872;74.622;2024-03-17T06:21:04;68.47;;;34.65;;
52798;SDS011;38667;42.872;74.622;2024-03-17T06:23:32;68.05;;;34.60;;
52798;SDS011;38667;42.872;74.622;2024-03-17T06:25:59;73.57;;;34.25;;
52798;SDS011;38667;42.872;74.622;2024-03-17T06:28:25;64.55;;;34.53;;
52798;SDS011;38667;42.872;74.622;2024-03-17T06:30:55;55.78;;;33.72;;
52798;SDS011;38667;42.872;74.622;2024-03-17T06:33:22;59.65;;;33.08;;
52798;SDS011;38667;42.872;74.622;2024-03-17T06:35:48;59.95;;;32.85;;
52798;SDS011;38667;42.872;74.622;2024-03-17T06:38:15;57.70;;;33.15;;
52798;SDS011;38667;42.872;74.622;2024-03-17T06:40:47;69.18;;;32.55;;
52798;SDS011;38667;42.872;74.622;2024-03-17T06:43:14;59.65;;;34.80;;
52798;SDS011;38667;42.872;74.622;2024-03-17T06:45:40;57.60;;;32.97;;
52798;SDS011;38667;42.872;74.622;2024-03-17T06:48:06;55.42;;;33.45;;
52798;SDS011;38667;42.872;74.622;2024-03-17T06:50:33;59.40;;;32.63;;
52798;SDS011;38667;42.872;74.622;2024-03-17T06:52:59;59.85;;;35.67;;
52798;SDS011;38667;42.872;74.622;2024-03-17T06:55:26;76.93;;;34.35;;
52798;SDS011;38667;42.872;74.622;2024-03-17T06:57:53;56.30;;;33.60;;
52798;SDS011;38667;42.872;74.622;2024-03-17T07:00:20;57.97;;;33.78;;
52798;SDS011;38667;42.872;74.622;2024-03-17T07:02:48;58.72;;;32.55;;
52798;SDS011;38667;42.872;74.622;2024-03-17T07:05:15;59.67;;;33.83;;
52798;SDS011;38667;42.872;74.622;2024-03-17T07:07:42;61.05;;;33.20;;
52798;SDS011;38667;42.872;74.622;2024-03-17T07:10:09;55.35;;;33.42;;
52798;SDS011;38667;42.872;74.622;2024-03-17T07:12:36;62.45;;;34.78;;
52798;SDS011;38667;42.872;74.622;2024-03-17T07:15:04;58.15;;;33.17;;
52798;SDS011;38667;42.872;74.622;2024-03-17T07:17:31;56.03;;;33.17;;
52798;SDS011;38667;42.872;74.622;2024-03-17T07:19:57;70.40;;;33.35;;
52798;SDS011;38667;42.872;74.622;2024-03-17T07:22:24;61.60;;;33.60;;
52798;SDS011;38667;42.872;74.622;2024-03-17T07:24:50;66.43;;;32.67;;
52798;SDS011;38667;42.872;74.622;2024-03-17T07:27:16;57.92;;;33.50;;
52798;SDS011;38667;42.872;74.622;2024-03-17T07:29:43;53.05;;;33.50;;
52798;SDS011;38667;42.872;74.622;2024-03-17T07:32:10;63.20;;;34.50;;
52798;SDS011;38667;42.872;74.622;2024-03-17T07:34:37;65.35;;;34.33;;
52798;SDS011;38667;42.872;74.622;2024-03-17T07:37:03;51.97;;;32.00;;
52798;SDS011;38667;42.872;74.622;2024-03-17T07:39:30;51.92;;;32.42;;
52798;SDS011;38667;42.872;74.622;2024-03-17T07:41:56;63.28;;;32.53;;
52798;SDS011;38667;42.872;74.622;2024-03-17T07:44:22;50.55;;;30.88;;
52798;SDS011;38667;42.872;74.622;2024-03-17T07:46:49;66.82;;;33.25;;
52798;SDS011;38667;42.872;74.622;2024-03-17T07:49:17;61.72;;;32.28;;
52798;SDS011;38667;42.872;74.622;2024-03-17T07:51:43;55.58;;;29.63;;
52798;SDS011;38667;42.872;74.622;2024-03-17T07:54:09;55.13;;;30.60;;
52798;SDS011;38667;42.872;74.622;2024-03-17T07:56:36;68.75;;;30.95;;
52798;SDS011;38667;42.872;74.622;2024-03-17T07:59:02;60.97;;;29.05;;
52798;SDS011;38667;42.872;74.622;2024-03-17T08:01:28;38.80;;;28.10;;
52798;SDS011;38667;42.872;74.622;2024-03-17T08:03:55;46.75;;;28.10;;
52798;SDS011;38667;42.872;74.622;2024-03-17T08:06:22;48.97;;;30.20;;
52798;SDS011;38667;42.872;74.622;2024-03-17T08:08:49;49.95;;;29.48;;
52798;SDS011;38667;42.872;74.622;2024-03-17T08:11:15;46.70;;;27.98;;
52798;SDS011;38667;42.872;74.622;2024-03-17T08:13:41;50.92;;;29.88;;
52798;SDS011;38667;42.872;74.622;2024-03-17T08:16:08;50.15;;;32.70;;
52798;SDS011;38667;42.872;74.622;2024-03-17T08:18:34;46.85;;;28.23;;
52798;SDS011;38667;42.872;74.622;2024-03-17T08:21:01;56.22;;;28.10;;
52798;SDS011;38667;42.872;74.622;2024-03-17T08:23:30;39.45;;;26.55;;
52798;SDS011;38667;42.872;74.622;2024-03-17T08:25:57;49.63;;;28.20;;
52798;SDS011;38667;42.872;74.622;2024-03-17T08:28:24;51.90;;;27.88;;
52798;SDS011;38667;42.872;74.622;2024-03-17T08:30:52;46.20;;;28.00;;
52798;SDS011;38667;42.872;74.622;2024-03-17T08:33:18;58.20;;;27.73;;
52798;SDS011;38667;42.872;74.622;2024-03-17T08:35:52;40.90;;;25.92;;
52798;SDS011;38667;42.872;74.622;2024-03-17T08:38:18;37.92;;;23.40;;
52798;SDS011;38667;42.872;74.622;2024-03-17T08:40:46;44.55;;;25.05;;
52798;SDS011;38667;42.872;74.622;2024-03-17T08:43:13;58.35;;;26.60;;
52798;SDS011;38667;42.872;74.622;2024-03-17T08:45:39;44.67;;;27.23;;
52798;SDS011;38667;42.872;74.622;2024-03-17T08:48:06;49.78;;;26.15;;
52798;SDS011;38667;42.872;74.622;2024-03-17T08:50:32;45.72;;;24.45;;
52798;SDS011;38667;42.872;74.622;2024-03-17T08:52:59;41.03;;;22.58;;
52798;SDS011;38667;42.872;74.622;2024-03-17T08:55:25;39.03;;;23.15;;
52798;SDS011;38667;42.872;74.622;2024-03-17T08:57:53;44.05;;;23.27;;
52798;SDS011;38667;42.872;74.622;2024-03-17T09:00:19;49.03;;;24.77;;
52798;SDS011;38667;42.872;74.622;2024-03-17T09:02:46;40.40;;;23.88;;
52798;SDS011;38667;42.872;74.622;2024-03-17T09:05:12;40.38;;;23.70;;
52798;SDS011;38667;42.872;74.622;2024-03-17T09:07:39;39.35;;;23.52;;
52798;SDS011;38667;42.872;74.622;2024-03-17T09:10:05;43.50;;;22.35;;
52798;SDS011;38667;42.872;74.622;2024-03-17T09:12:32;44.83;;;22.17;;
52798;SDS011;38667;42.872;74.622;2024-03-17T09:15:00;36.40;;;22.25;;
52798;SDS011;38667;42.872;74.622;2024-03-17T09:17:27;38.35;;;23.02;;
52798;SDS011;38667;42.872;74.622;2024-03-17T09:19:53;52.88;;;24.33;;
52798;SDS011;38667;42.872;74.622;2024-03-17T09:22:19;37.45;;;23.55;;
52798;SDS011;38667;42.872;74.622;2024-03-17T09:24:46;36.35;;;21.67;;
52798;SDS011;38667;42.872;74.622;2024-03-17T09:27:12;45.55;;;21.35;;
52798;SDS011;38667;42.872;74.622;2024-03-17T09:29:39;41.95;;;22.08;;
52798;SDS011;38667;42.872;74.622;2024-03-17T09:32:07;37.17;;;21.30;;
52798;SDS011;38667;42.872;74.622;2024-03-17T09:34:34;38.40;;;22.83;;
52798;SDS011;38667;42.872;74.622;2024-03-17T09:37:00;44.45;;;23.20;;
52798;SDS011;38667;42.872;74.622;2024-03-17T09:39:26;44.53;;;23.98;;
52798;SDS011;38667;42.872;74.622;2024-03-17T09:41:53;36.65;;;23.40;;
52798;SDS011;38667;42.872;74.622;2024-03-17T09:44:19;45.70;;;22.88;;
52798;SDS011;38667;42.872;74.622;2024-03-17T09:46:45;43.28;;;23.42;;
52798;SDS011;38667;42.872;74.622;2024-03-17T09:49:14;38.60;;;22.52;;
52798;SDS011;38667;42.872;74.622;2024-03-17T09:51:41;40.22;;;22.35;;
52798;SDS011;38667;42.872;74.622;2024-03-17T09:54:10;42.65;;;23.73;;
52798;SDS011;38667;42.872;74.622;2024-03-17T09:56:42;42.80;;;24.38;;
52798;SDS011;38667;42.872;74.622;2024-03-17T09:59:09;45.10;;;24.40;;
52798;SDS011;38667;42.872;74.622;2024-03-17T10:01:35;48.20;;;25.13;;
52798;SDS011;38667;42.872;74.622;2024-03-17T10:04:01;39.50;;;23.92;;
52798;SDS011;38667;42.872;74.622;2024-03-17T10:06:29;52.90;;;25.42;;
52798;SDS011;38667;42.872;74.622;2024-03-17T10:08:57;42.25;;;23.25;;
52798;SDS011;38667;42.872;74.622;2024-03-17T10:11:25;46.17;;;24.48;;
52798;SDS011;38667;42.872;74.622;2024-03-17T10:14:01;39.28;;;24.63;;
52798;SDS011;38667;42.872;74.622;2024-03-17T10:16:28;41.17;;;24.02;;
52798;SDS011;38667;42.872;74.622;2024-03-17T10:19:05;39.50;;;23.48;;
52798;SDS011;38667;42.872;74.622;2024-03-17T10:21:34;42.30;;;24.25;;
52798;SDS011;38667;42.872;74.622;2024-03-17T10:24:08;41.80;;;23.73;;
52798;SDS011;38667;42.872;74.622;2024-03-17T10:26:41;43.83;;;23.73;;
52798;SDS011;38667;42.872;74.622;2024-03-17T10:29:19;40.65;;;23.23;;
52798;SDS011;38667;42.872;74.622;2024-03-17T10:31:47;45.67;;;24.23;;
52798;SDS011;38667;42.872;74.622;2024-03-17T10:34:14;41.08;;;23.40;;
52798;SDS011;38667;42.872;74.622;2024-03-17T10:36:44;37.80;;;22.52;;
52798;SDS011;38667;42.872;74.622;2024-03-17T10:39:16;41.72;;;22.88;;
52798;SDS011;38667;42.872;74.622;2024-03-17T10:41:49;39.00;;;22.73;;
52798;SDS011;38667;42.872;74.622;2024-03-17T10:44:15;39.63;;;22.40;;
52798;SDS011;38667;42.872;74.622;2024-03-17T10:46:42;46.15;;;22.52;;
52798;SDS011;38667;42.872;74.622;2024-03-17T10:49:09;37.83;;;20.75;;
52798;SDS011;38667;42.872;74.622;2024-03-17T10:51:37;44.45;;;21.58;;
52798;SDS011;38667;42.872;74.622;2024-03-17T10:54:05;42.17;;;21.80;;
52798;SDS011;38667;42.872;74.622;2024-03-17T10:56:35;39.45;;;22.15;;
52798;SDS011;38667;42.872;74.622;2024-03-17T10:59:01;42.90;;;22.52;;
52798;SDS011;38667;42.872;74.622;2024-03-17T11:01:29;41.85;;;21.25;;
52798;SDS011;38667;42.872;74.622;2024-03-17T11:03:56;41.72;;;20.17;;
52798;SDS011;38667;42.872;74.622;2024-03-17T11:06:24;37.22;;;21.13;;
52798;SDS011;38667;42.872;74.622;2024-03-17T11:08:50;36.67;;;20.17;;
52798;SDS011;38667;42.872;74.622;2024-03-17T11:14:15;37.55;;;20.83;;
52798;SDS011;38667;42.872;74.622;2024-03-17T11:16:42;38.47;;;21.42;;
52798;SDS011;38667;42.872;74.622;2024-03-17T11:19:08;44.40;;;21.90;;
52798;SDS011;38667;42.872;74.622;2024-03-17T11:21:40;46.53;;;22.65;;
52798;SDS011;38667;42.872;74.622;2024-03-17T11:24:07;40.15;;;21.55;;
52798;SDS011;38667;42.872;74.622;2024-03-17T11:26:46;41.35;;;22.48;;
52798;SDS011;38667;42.872;74.622;2024-03-17T11:29:25;34.35;;;20.75;;
52798;SDS011;38667;42.872;74.622;2024-03-17T11:31:53;34.08;;;20.10;;
52798;SDS011;38667;42.872;74.622;2024-03-17T11:34:32;33.05;;;20.35;;
52798;SDS011;38667;42.872;74.622;2024-03-17T11:37:03;36.78;;;20.50;;
52798;SDS011;38667;42.872;74.622;2024-03-17T11:42:17;39.83;;;20.30;;
52798;SDS011;38667;42.872;74.622;2024-03-17T11:44:43;36.28;;;20.52;;
52798;SDS011;38667;42.872;74.622;2024-03-17T11:47:20;39.53;;;20.92;;
52798;SDS011;38667;42.872;74.622;2024-03-17T11:49:47;49.92;;;20.40;;
52798;SDS011;38667;42.872;74.622;2024-03-17T11:52:16;33.80;;;20.15;;
52798;SDS011;38667;42.872;74.622;2024-03-17T11:54:44;38.33;;;20.33;;
52798;SDS011;38667;42.872;74.622;2024-03-17T11:57:12;38.42;;;21.38;;
52798;SDS011;38667;42.872;74.622;2024-03-17T11:59:41;33.42;;;20.52;;
52798;SDS011;38667;42.872;74.622;2024-03-17T12:02:13;35.47;;;20.20;;
52798;SDS011;38667;42.872;74.622;2024-03-17T12:04:44;33.95;;;19.85;;
52798;SDS011;38667;42.872;74.622;2024-03-17T12:07:11;32.42;;;19.55;;
52798;SDS011;38667;42.872;74.622;2024-03-17T12:09:40;34.35;;;18.65;;
52798;SDS011;38667;42.872;74.622;2024-03-17T12:12:08;34.25;;;19.25;;
52798;SDS011;38667;42.872;74.622;2024-03-17T12:14:35;50.63;;;19.33;;
52798;SDS011;38667;42.872;74.622;2024-03-17T12:17:04;34.63;;;18.77;;
52798;SDS011;38667;42.872;74.622;2024-03-17T12:19:32;37.80;;;19.02;;
52798;SDS011;38667;42.872;74.622;2024-03-17T12:21:59;41.08;;;18.85;;
52798;SDS011;38667;42.872;74.622;2024-03-17T12:24:27;36.15;;;19.65;;
52798;SDS011;38667;42.872;74.622;2024-03-17T12:26:54;47.05;;;19.17;;
52798;SDS011;38667;42.872;74.622;2024-03-17T12:29:25;40.97;;;20.83;;
52798;SDS011;38667;42.872;74.622;2024-03-17T12:31:53;37.22;;;19.58;;
52798;SDS011;38667;42.872;74.622;2024-03-17T12:34:22;37.67;;;20.80;;
52798;SDS011;38667;42.872;74.622;2024-03-17T12:36:50;39.13;;;19.48;;
52798;SDS011;38667;42.872;74.622;2024-03-17T12:39:18;47.95;;;20.30;;
52798;SDS011;38667;42.872;74.622;2024-03-17T12:41:45;42.63;;;20.15;;
52798;SDS011;38667;42.872;74.622;2024-03-17T12:44:26;45.80;;;20.95;;
52798;SDS011;38667;42.872;74.622;2024-03-17T12:46:54;39.53;;;20.15;;
52798;SDS011;38667;42.872;74.622;2024-03-17T12:49:22;34.45;;;20.30;;
52798;SDS011;38667;42.872;74.622;2024-03-17T12:51:49;43.58;;;21.52;;
52798;SDS011;38667;42.872;74.622;2024-03-17T12:54:15;39.45;;;21.25;;
52798;SDS011;38667;42.872;74.622;2024-03-17T12:56:44;51.78;;;22.13;;
52798;SDS011;38667;42.872;74.622;2024-03-17T12:59:10;45.15;;;23.85;;
52798;SDS011;38667;42.872;74.622;2024-03-17T13:01:37;44.85;;;22.55;;
52798;SDS011;38667;42.872;74.622;2024-03-17T13:04:06;47.75;;;22.90;;
52798;SDS011;38667;42.872;74.622;2024-03-17T13:06:34;47.55;;;22.45;;
52798;SDS011;38667;42.872;74.622;2024-03-17T13:09:00;39.88;;;21.17;;
52798;SDS011;38667;42.872;74.622;2024-03-17T13:11:27;39.90;;;21.95;;
52798;SDS011;38667;42.872;74.622;2024-03-17T13:13:53;52.15;;;22.30;;
52798;SDS011;38667;42.872;74.622;2024-03-17T13:16:19;45.47;;;22.55;;
52798;SDS011;38667;42.872;74.622;2024-03-17T13:18:46;48.00;;;21.17;;
52798;SDS011;38667;42.872;74.622;2024-03-17T13:21:12;42.30;;;20.88;;
52798;SDS011;38667;42.872;74.622;2024-03-17T13:23:40;51.10;;;23.58;;
52798;SDS011;38667;42.872;74.622;2024-03-17T13:26:06;45.67;;;23.10;;
52798;SDS011;38667;42.872;74.622;2024-03-17T13:28:33;50.08;;;23.30;;
52798;SDS011;38667;42.872;74.622;2024-03-17T13:30:59;46.92;;;23.67;;
52798;SDS011;38667;42.872;74.622;2024-03-17T13:33:25;44.78;;;22.00;;
52798;SDS011;38667;42.872;74.622;2024-03-17T13:35:52;49.08;;;23.65;;
52798;SDS011;38667;42.872;74.622;2024-03-17T13:38:18;45.33;;;24.13;;
52798;SDS011;38667;42.872;74.622;2024-03-17T13:40:46;60.15;;;25.88;;
52798;SDS011;38667;42.872;74.622;2024-03-17T13:43:12;49.10;;;25.30;;
52798;SDS011;38667;42.872;74.622;2024-03-17T13:45:39;58.97;;;26.52;;
52798;SDS011;38667;42.872;74.622;2024-03-17T13:48:06;68.03;;;28.65;;
52798;SDS011;38667;42.872;74.622;2024-03-17T13:50:33;57.30;;;30.50;;
52798;SDS011;38667;42.872;74.622;2024-03-17T13:53:00;62.92;;;32.33;;
52798;SDS011;38667;42.872;74.622;2024-03-17T13:55:26;66.53;;;30.63;;
52798;SDS011;38667;42.872;74.622;2024-03-17T13:57:55;59.35;;;31.05;;
52798;SDS011;38667;42.872;74.622;2024-03-17T14:00:22;67.20;;;33.28;;
52798;SDS011;38667;42.872;74.622;2024-03-17T14:02:49;70.03;;;33.80;;
52798;SDS011;38667;42.872;74.622;2024-03-17T14:05:17;74.47;;;34.53;;
52798;SDS011;38667;42.872;74.622;2024-03-17T14:07:45;71.85;;;37.45;;
52798;SDS011;38667;42.872;74.622;2024-03-17T14:10:13;74.63;;;36.20;;
52798;SDS011;38667;42.872;74.622;2024-03-17T14:12:40;72.78;;;37.65;;
52798;SDS011;38667;42.872;74.622;2024-03-17T14:15:08;69.45;;;35.45;;